Los Gatos, CA

5:33 PM PST on January 24, 2017 (GMT -0800)
Los Gatos | | Change Station

Elev 380 ft 37.23 °N, 121.95 °W | Updated 38 seconds ago

Clear
Clear
47.7 °F
Feels Like 48 °F
N
0.0
Wind Variable Wind from South
Gusts 0.0 mph

Today
High -- | Low -- °F
--% Chance of Precip.
Yesterday
High -- | Low -- °F
Precip. -- in
Pressure 30.12 in
Visibility 10.0 miles
Clouds Few 3000 ft
Few 4700 ft
Windchill 48 °F
Dew Point 37 °F
Humidity 66%
Rainfall 0.00 in
Snow Depth Not available.
7:16 AM 5:24 PM
Waning Crescent, 9% visible
METAR KSJC 250053Z 32011KT 10SM FEW030 FEW047 11/03 A3012 RMK AO2 SLP198 T01110028
Pressure 30.12 in
Visibility 10.0 miles
Clouds Few 3000 ft
Few 4700 ft
Windchill 48 °F
Dew Point 37 °F
Humidity 66%
Rainfall 0.00 in
Snow Depth Not available.
7:16 AM 5:24 PM
Waning Crescent, 9% visible
METAR KSJC 250053Z 32011KT 10SM FEW030 FEW047 11/03 A3012 RMK AO2 SLP198 T01110028

Get Your Daily Forecast Email!

Thanks for signing up!

Be on the lookout for a verification email in your inbox.

You'll start receiving the daily forecast at 8 AM.

×

10-Day Weather Forecast

Almanac

Astronomy

Jan. 24, 2017 Rise Set
Actual Time
Civil Twilight
Nautical Twilight
Astronomical Twilight
Moon
Length of Visible Light
Length of Day
Tomorrow will be .
, % of the Moon is Illuminated

Today's Extremes

State Highs State Lows

Community

WunderPhotos

Upload Photos

1,962,540 photos uploaded!

WunderBlog® & News

Nearby

Air Quality

  Air Quality AQ Index Pollutant
Not available.

Snow Depth

Station Depth Elevation

Earthquake Activity

City Distance Mag. Time & Date
Minimum magnitude displayed is 2.5.

Coastal Water Temperatures

Place Temperature

Stations

Nearby Weather Stations

Station Location Temp. Windchill Dew Point Humidity Wind Precip. Elev Updated Type
                   

Watches & Warnings

There are currently no watches in effect.